Time;durP1;ratioP1;P1;durP2;ratioP2;P2;SDS_P1;SDS_P2;PMS_P1;PMS_P2;Temp;Humidity;BMP_temperature;BMP_pressure;BME280_temperature;BME280_humidity;BME280_pressure;Samples;Min_cycle;Max_cycle;Signal;HPM_P1;HPM_P2
2022/09/20 00:01:29;;;;;;;1.50;0.90;;;16.00;64.70;;;;;;4929018;29;20457;-69
2022/09/20 00:03:59;;;;;;;1.40;1.00;;;16.00;64.70;;;;;;4911479;29;20460;-69
2022/09/20 00:06:30;;;;;;;0.93;0.80;;;16.00;64.70;;;;;;4927144;29;20460;-69
2022/09/20 00:09:00;;;;;;;1.90;1.10;;;16.00;64.80;;;;;;4911381;29;20561;-69
2022/09/20 00:11:30;;;;;;;1.40;0.77;;;16.00;64.80;;;;;;4927368;29;20523;-69
2022/09/20 00:14:02;;;;;;;1.10;1.00;;;16.00;64.70;;;;;;4921094;29;21148;-69
2022/09/20 00:16:32;;;;;;;0.90;0.67;;;16.00;64.70;;;;;;4926800;29;20480;-69
2022/09/20 00:19:02;;;;;;;4.27;0.93;;;16.00;64.80;;;;;;4927217;29;20448;-69
2022/09/20 00:21:33;;;;;;;2.07;0.80;;;16.00;64.70;;;;;;4922354;29;21002;-69
2022/09/20 00:24:02;;;;;;;1.10;0.70;;;16.00;64.70;;;;;;4924998;29;20499;-69
2022/09/20 00:26:30;;;;;;;2.50;1.00;;;16.00;64.70;;;;;;4927481;29;20882;-69
2022/09/20 00:29:00;;;;;;;1.37;0.80;;;16.00;64.80;;;;;;4927672;29;20441;-69
2022/09/20 00:31:29;;;;;;;3.23;1.30;;;16.00;64.70;;;;;;4930129;29;20479;-69
2022/09/20 00:36:44;;;;;;;2.40;0.90;;;16.00;64.80;;;;;;4931079;29;20886;-69
2022/09/20 00:39:15;;;;;;;1.50;0.90;;;16.00;64.70;;;;;;4939283;29;20527;-69
2022/09/20 00:41:44;;;;;;;2.70;0.70;;;16.00;64.90;;;;;;4936604;29;20589;-69
2022/09/20 00:44:44;;;;;;;4.03;1.50;;;16.00;64.90;;;;;;4931463;29;20518;-69
2022/09/20 00:47:20;;;;;;;1.17;1.00;;;16.00;65.00;;;;;;4915697;29;20468;-69
2022/09/20 00:49:51;;;;;;;2.40;1.00;;;16.00;65.10;;;;;;4915489;29;20445;-69
2022/09/20 00:52:20;;;;;;;1.53;0.70;;;16.00;65.20;;;;;;4928542;29;20469;-69
2022/09/20 00:54:49;;;;;;;1.73;0.70;;;15.90;65.10;;;;;;4915147;29;20992;-69
2022/09/20 00:57:17;;;;;;;1.77;0.97;;;16.00;65.00;;;;;;4931359;29;20542;-69
2022/09/20 00:59:50;;;;;;;1.33;1.23;;;16.00;65.20;;;;;;4931063;29;20475;-69
2022/09/20 01:02:23;;;;;;;3.90;1.07;;;15.90;65.00;;;;;;4928890;29;20865;-70
2022/09/20 01:04:51;;;;;;;1.93;0.97;;;15.90;65.20;;;;;;4915831;29;20480;-69
2022/09/20 01:07:22;;;;;;;1.70;1.30;;;15.90;65.00;;;;;;4934629;29;20586;-70
2022/09/20 01:09:51;;;;;;;2.37;0.93;;;15.90;65.10;;;;;;4932273;29;20440;-67
2022/09/20 01:12:22;;;;;;;1.30;0.83;;;15.90;64.90;;;;;;4910504;29;20500;-67
2022/09/20 01:14:53;;;;;;;1.00;0.63;;;16.00;65.80;;;;;;4930624;29;20464;-69
2022/09/20 01:17:25;;;;;;;0.87;0.87;;;15.90;64.90;;;;;;4924671;29;20473;-69
2022/09/20 01:20:08;;;;;;;1.40;0.80;;;15.90;65.10;;;;;;4920968;29;20473;-69
2022/09/20 01:22:50;;;;;;;1.53;0.90;;;16.00;65.10;;;;;;4929438;28;20480;-69
2022/09/20 01:25:41;;;;;;;1.40;0.73;;;15.90;65.00;;;;;;4907927;29;21003;-69
2022/09/20 01:28:11;;;;;;;1.70;1.33;;;16.00;65.20;;;;;;4914472;29;20469;-69
2022/09/20 01:30:45;;;;;;;2.07;1.00;;;15.90;65.00;;;;;;4915559;29;20444;-69
2022/09/20 01:33:23;;;;;;;1.23;0.80;;;15.90;65.00;;;;;;4927710;29;20563;-70
2022/09/20 01:35:54;;;;;;;2.80;0.80;;;15.90;65.00;;;;;;4911840;29;20996;-70
2022/09/20 01:38:34;;;;;;;2.00;0.83;;;15.90;64.90;;;;;;4928537;28;20472;-69
2022/09/20 01:41:11;;;;;;;1.27;0.97;;;15.90;65.00;;;;;;4929105;29;20479;-69
2022/09/20 01:43:48;;;;;;;1.90;1.00;;;15.90;65.20;;;;;;4926358;29;20550;-69
2022/09/20 01:46:30;;;;;;;1.10;0.97;;;15.90;65.00;;;;;;4930808;29;20468;-69
2022/09/20 01:49:16;;;;;;;1.00;0.70;;;15.90;65.00;;;;;;4935286;29;21033;-69
2022/09/20 01:52:14;;;;;;;2.60;1.20;;;15.90;64.90;;;;;;4922800;29;20510;-69
2022/09/20 01:55:18;;;;;;;1.70;1.10;;;15.90;64.90;;;;;;4923039;29;20464;-69
2022/09/20 01:58:09;;;;;;;2.00;0.70;;;15.90;65.00;;;;;;4918086;29;20468;-69
2022/09/20 02:00:52;;;;;;;4.20;0.97;;;15.90;65.10;;;;;;4930060;29;21047;-69
2022/09/20 02:03:59;;;;;;;1.97;1.00;;;15.90;65.10;;;;;;4910372;29;20505;-69
2022/09/20 02:06:50;;;;;;;1.47;0.90;;;15.90;65.00;;;;;;4903977;29;21062;-69
2022/09/20 02:09:46;;;;;;;1.33;0.70;;;15.90;65.00;;;;;;4923589;29;20449;-70
2022/09/20 02:12:38;;;;;;;0.87;0.80;;;15.90;64.70;;;;;;4924857;29;20472;-70
2022/09/20 02:15:13;;;;;;;1.67;1.10;;;15.90;65.00;;;;;;4911509;29;20548;-70
2022/09/20 02:17:55;;;;;;;2.87;1.30;;;15.90;65.10;;;;;;4931825;28;20575;-70
2022/09/20 02:20:39;;;;;;;1.47;0.80;;;15.90;65.00;;;;;;4910280;29;20481;-68
2022/09/20 02:23:21;;;;;;;1.77;1.20;;;16.00;65.10;;;;;;4923742;29;20531;-69
2022/09/20 02:26:09;;;;;;;2.70;1.13;;;15.90;65.20;;;;;;4929079;29;20528;-69
2022/09/20 02:28:56;;;;;;;5.40;1.20;;;15.90;65.00;;;;;;4908875;29;20462;-69
2022/09/20 02:31:38;;;;;;;1.67;1.10;;;15.90;65.00;;;;;;4922372;29;20432;-70
2022/09/20 02:34:38;;;;;;;3.60;1.00;;;15.90;64.90;;;;;;4930556;29;20444;-68
2022/09/20 02:37:30;;;;;;;1.60;0.90;;;15.90;64.90;;;;;;4899240;29;20486;-70
2022/09/20 02:40:20;;;;;;;1.43;1.00;;;15.90;64.90;;;;;;4952521;23;21023;-72
2022/09/20 02:42:59;;;;;;;1.67;1.20;;;15.90;64.80;;;;;;4935036;28;21017;-75
2022/09/20 02:45:35;;;;;;;1.23;0.70;;;15.90;64.70;;;;;;4939688;29;20554;-74
2022/09/20 02:48:05;;;;;;;1.90;0.87;;;15.90;64.70;;;;;;4950644;28;20574;-72
2022/09/20 02:50:44;;;;;;;1.03;0.90;;;15.90;64.70;;;;;;4945982;28;20504;-72
2022/09/20 02:53:29;;;;;;;1.47;1.00;;;15.90;65.40;;;;;;4925863;29;20530;-73
2022/09/20 02:56:04;;;;;;;1.10;0.90;;;15.90;64.50;;;;;;4932615;28;20862;-74
2022/09/20 02:58:43;;;;;;;1.23;0.93;;;15.90;64.50;;;;;;4935039;29;20497;-74
2022/09/20 03:01:22;;;;;;;1.13;0.80;;;15.90;64.50;;;;;;4935668;29;20699;-73
2022/09/20 03:03:59;;;;;;;1.63;0.70;;;15.90;64.50;;;;;;4934435;28;20475;-74
2022/09/20 03:06:36;;;;;;;2.10;1.07;;;15.90;64.50;;;;;;4933480;29;20471;-74
2022/09/20 03:09:11;;;;;;;1.60;1.00;;;15.90;64.40;;;;;;4949178;28;20479;-72
2022/09/20 03:11:49;;;;;;;1.73;1.00;;;15.90;64.40;;;;;;4930045;29;20467;-73
2022/09/20 03:14:22;;;;;;;5.20;1.20;;;15.90;64.40;;;;;;4945822;29;20953;-73
2022/09/20 03:17:05;;;;;;;1.40;1.10;;;15.90;64.40;;;;;;4934169;28;20450;-73
2022/09/20 03:19:48;;;;;;;2.20;0.90;;;15.90;64.30;;;;;;4931732;29;20807;-74
2022/09/20 03:22:31;;;;;;;0.87;0.70;;;15.90;64.40;;;;;;4940623;28;20566;-74
2022/09/20 03:25:11;;;;;;;2.93;1.00;;;15.90;64.40;;;;;;4945965;28;20816;-73
2022/09/20 03:27:47;;;;;;;1.73;0.80;;;15.90;64.40;;;;;;4930590;29;20523;-74
2022/09/20 03:30:28;;;;;;;1.13;0.87;;;15.90;64.30;;;;;;4937994;29;20449;-74
2022/09/20 03:33:06;;;;;;;2.30;1.10;;;15.90;64.30;;;;;;4948569;28;20594;-73
2022/09/20 03:35:46;;;;;;;2.20;0.80;;;15.90;64.30;;;;;;4935840;29;21093;-74
2022/09/20 03:41:13;;;;;;;1.93;0.70;;;15.90;64.20;;;;;;5137462;27;20555;-54
2022/09/20 03:44:01;;;;;;;0.93;0.83;;;15.90;64.20;;;;;;5095430;28;20462;-54
2022/09/20 03:46:39;;;;;;;1.07;1.00;;;15.90;64.20;;;;;;5061850;28;20439;-54
2022/09/20 03:49:51;;;;;;;1.17;0.77;;;15.90;64.20;;;;;;5062300;28;20430;-54
2022/09/20 03:52:35;;;;;;;1.37;0.90;;;15.90;64.30;;;;;;5021904;28;20602;-52
2022/09/20 03:55:34;;;;;;;1.10;0.57;;;15.90;64.40;;;;;;5025126;28;20468;-53
2022/09/20 03:58:30;;;;;;;1.70;0.90;;;15.90;64.30;;;;;;5040014;28;20464;-54
2022/09/20 04:01:12;;;;;;;1.67;1.00;;;15.90;64.20;;;;;;5025438;28;20994;-53
2022/09/20 04:03:51;;;;;;;1.83;0.90;;;15.90;64.30;;;;;;5025061;28;20535;-53
2022/09/20 04:06:39;;;;;;;2.60;1.00;;;15.90;64.30;;;;;;5040751;28;20466;-54
2022/09/20 04:09:40;;;;;;;2.50;1.20;;;15.90;64.40;;;;;;5025473;28;20440;-54
2022/09/20 04:12:22;;;;;;;2.53;0.57;;;15.80;64.30;;;;;;5023741;28;20742;-53
2022/09/20 04:15:01;;;;;;;3.53;1.37;;;15.80;64.20;;;;;;5042021;28;20464;-54
2022/09/20 04:17:41;;;;;;;1.90;1.47;;;15.80;64.20;;;;;;5056877;28;20518;-53
2022/09/20 04:20:20;;;;;;;1.90;1.23;;;15.80;64.20;;;;;;5043013;28;20462;-54
2022/09/20 04:22:51;;;;;;;1.07;1.00;;;15.90;64.20;;;;;;5043278;28;20989;-55
2022/09/20 04:25:23;;;;;;;1.40;1.10;;;15.80;64.20;;;;;;5062101;28;20997;-52
2022/09/20 04:27:58;;;;;;;2.20;0.97;;;15.80;64.10;;;;;;5048377;28;20481;-54
2022/09/20 04:30:34;;;;;;;1.53;0.87;;;15.80;64.10;;;;;;5044885;28;20454;-54
2022/09/20 04:33:08;;;;;;;1.30;0.90;;;15.90;64.10;;;;;;5040644;28;20467;-54
2022/09/20 04:38:30;;;;;;;1.47;1.07;;;15.90;64.10;;;;;;5024262;28;20478;-53
2022/09/20 04:41:19;;;;;;;2.70;0.90;;;15.80;64.00;;;;;;5022893;28;20480;-54
2022/09/20 04:44:20;;;;;;;3.00;1.47;;;15.80;63.90;;;;;;5024636;28;20860;-54
2022/09/20 04:47:27;;;;;;;3.33;1.17;;;15.80;64.00;;;;;;5020039;28;20437;-52
2022/09/20 04:50:31;;;;;;;2.00;0.90;;;15.90;64.00;;;;;;5038111;28;20570;-55
2022/09/20 04:53:41;;;;;;;1.93;1.20;;;15.80;63.90;;;;;;5010699;28;20468;-53
2022/09/20 04:56:20;;;;;;;1.93;1.10;;;15.80;63.90;;;;;;5019943;28;20471;-54
2022/09/20 04:58:56;;;;;;;1.67;1.40;;;15.80;64.00;;;;;;5011596;28;20467;-54
2022/09/20 05:02:03;;;;;;;1.57;1.40;;;15.80;64.10;;;;;;5011528;28;20841;-54
2022/09/20 05:05:19;;;;;;;1.63;1.10;;;15.90;64.20;;;;;;5008521;28;20526;-54
2022/09/20 05:08:45;;;;;;;1.57;1.43;;;15.80;64.10;;;;;;5014959;28;20467;-53
2022/09/20 05:11:48;;;;;;;3.40;1.47;;;15.80;64.20;;;;;;5029423;28;20436;-54
2022/09/20 05:14:42;;;;;;;2.40;2.20;;;15.80;64.20;;;;;;5020294;28;20457;-54
2022/09/20 05:17:31;;;;;;;2.87;1.63;;;15.80;64.30;;;;;;5041821;28;20531;-54
2022/09/20 05:20:35;;;;;;;4.40;3.83;;;15.80;64.30;;;;;;5030737;28;20456;-53
2022/09/20 05:23:32;;;;;;;6.87;6.17;;;15.80;64.40;;;;;;5025842;28;20978;-54
2022/09/20 05:26:20;;;;;;;3.13;2.57;;;15.80;64.70;;;;;;5045794;28;20499;-54
2022/09/20 05:28:55;;;;;;;4.00;3.40;;;15.80;64.40;;;;;;5028108;28;20471;-54
2022/09/20 05:31:36;;;;;;;3.93;2.97;;;15.80;64.40;;;;;;5047987;28;20412;-54
2022/09/20 05:34:16;;;;;;;7.57;3.23;;;15.80;64.30;;;;;;5045116;28;20459;-54
2022/09/20 05:36:55;;;;;;;4.53;3.27;;;15.80;64.50;;;;;;5045993;28;20895;-54
2022/09/20 05:39:40;;;;;;;5.13;3.30;;;15.80;64.50;;;;;;5047580;28;20447;-53
2022/09/20 05:42:18;;;;;;;3.53;2.70;;;15.80;64.40;;;;;;5028895;28;21067;-53
2022/09/20 05:45:07;;;;;;;5.83;3.03;;;15.80;64.40;;;;;;5046537;28;20850;-54
2022/09/20 05:47:44;;;;;;;3.33;3.00;;;15.80;64.60;;;;;;5048037;28;20472;-55
2022/09/20 05:50:39;;;;;;;4.30;3.20;;;15.80;64.40;;;;;;5045744;28;20824;-53
2022/09/20 05:53:50;;;;;;;2.73;2.40;;;15.80;65.70;;;;;;5029437;28;20464;-54
2022/09/20 05:56:33;;;;;;;3.70;2.57;;;15.80;64.40;;;;;;5021457;28;20459;-53
2022/09/20 05:59:22;;;;;;;2.90;2.70;;;15.80;64.40;;;;;;5029557;28;20446;-54
2022/09/20 06:02:09;;;;;;;4.77;3.37;;;15.80;64.30;;;;;;5047018;28;20852;-55
2022/09/20 06:04:45;;;;;;;3.20;2.43;;;15.80;64.60;;;;;;5027968;28;20486;-53
2022/09/20 06:07:24;;;;;;;4.80;3.07;;;15.80;64.30;;;;;;5059363;28;20475;-56
2022/09/20 06:10:29;;;;;;;3.13;1.83;;;15.80;64.30;;;;;;5030263;28;20458;-54
2022/09/20 06:13:11;;;;;;;2.20;2.00;;;15.80;64.40;;;;;;5019441;28;20828;-52
2022/09/20 06:15:48;;;;;;;2.60;2.30;;;15.80;64.30;;;;;;5003660;28;20468;-54
2022/09/20 06:18:24;;;;;;;4.20;3.17;;;15.80;64.40;;;;;;5009939;28;20468;-51
2022/09/20 06:21:04;;;;;;;3.57;2.90;;;15.80;64.50;;;;;;5012349;28;20829;-54
2022/09/20 06:23:34;;;;;;;4.40;3.20;;;15.80;64.40;;;;;;5009642;28;20456;-52
2022/09/20 06:26:07;;;;;;;5.10;2.60;;;15.80;64.40;;;;;;5024628;28;20588;-53
2022/09/20 06:28:40;;;;;;;4.33;3.93;;;15.80;64.70;;;;;;5030205;28;20492;-53
2022/09/20 06:31:10;;;;;;;2.57;2.37;;;15.80;64.70;;;;;;5046738;28;20798;-53
2022/09/20 06:33:49;;;;;;;3.20;2.03;;;15.80;64.60;;;;;;5015134;28;20473;-54
2022/09/20 06:42:09;;;;;;;2.80;2.30;;;15.70;64.90;;;;;;5027191;28;20547;-53
2022/09/20 06:44:42;;;;;;;5.20;2.17;;;15.70;65.20;;;;;;5022410;28;20538;-53
2022/09/20 06:47:11;;;;;;;3.57;2.10;;;15.80;65.20;;;;;;5023076;28;20482;-54
2022/09/20 06:49:41;;;;;;;2.50;2.30;;;15.80;65.20;;;;;;5029001;28;20455;-53
2022/09/20 06:52:14;;;;;;;3.20;2.50;;;15.70;64.80;;;;;;5020555;28;20526;-54
2022/09/20 06:54:44;;;;;;;4.30;2.63;;;15.80;65.10;;;;;;5002236;28;20460;-52
2022/09/20 06:57:16;;;;;;;2.60;2.27;;;15.80;65.20;;;;;;5031890;28;20540;-54
2022/09/20 06:59:46;;;;;;;3.97;2.13;;;15.70;64.70;;;;;;5026284;28;21111;-54
2022/09/20 07:02:14;;;;;;;3.67;2.73;;;15.70;64.70;;;;;;5002268;28;20829;-53
2022/09/20 07:04:43;;;;;;;3.03;2.65;;;15.70;65.90;;;;;;5004056;28;20447;-51
2022/09/20 07:07:17;;;;;;;5.45;3.55;;;15.70;64.60;;;;;;5031062;28;21167;-54
2022/09/20 07:09:46;;;;;;;4.83;3.13;;;15.70;65.50;;;;;;5045718;28;20293;-52
2022/09/20 07:12:14;;;;;;;2.57;2.37;;;15.70;65.50;;;;;;5027444;28;20448;-55
2022/09/20 07:14:43;;;;;;;3.57;2.57;;;15.70;65.40;;;;;;5029781;28;20452;-53
2022/09/20 07:17:13;;;;;;;4.70;2.23;;;15.70;65.40;;;;;;5030085;28;20538;-52
2022/09/20 07:19:42;;;;;;;4.23;2.93;;;15.70;65.60;;;;;;5018161;28;20453;-53
2022/09/20 07:22:11;;;;;;;4.53;2.67;;;15.70;65.70;;;;;;5039744;28;20464;-52
2022/09/20 07:24:40;;;;;;;4.90;2.50;;;15.70;65.80;;;;;;5033376;28;20495;-52
2022/09/20 07:27:10;;;;;;;2.63;2.43;;;15.70;65.80;;;;;;5007381;28;20464;-52
2022/09/20 07:29:39;;;;;;;3.47;2.30;;;15.70;65.60;;;;;;5010737;28;21078;-52
2022/09/20 07:32:08;;;;;;;6.23;2.20;;;15.70;65.80;;;;;;5009760;28;20429;-51
2022/09/20 07:34:38;;;;;;;4.33;2.63;;;15.70;65.60;;;;;;5007118;28;20620;-53
2022/09/20 07:37:06;;;;;;;2.50;2.30;;;15.70;65.70;;;;;;4999791;28;20994;-53
2022/09/20 07:39:35;;;;;;;3.30;2.20;;;15.70;65.60;;;;;;5026296;28;20445;-53
2022/09/20 07:42:05;;;;;;;2.80;2.07;;;15.80;65.50;;;;;;5000566;28;20547;-54
2022/09/20 07:44:33;;;;;;;3.20;2.20;;;15.80;65.70;;;;;;5009233;28;20468;-53
2022/09/20 07:47:02;;;;;;;4.17;1.87;;;15.80;66.80;;;;;;5008250;28;20479;-54
2022/09/20 07:49:30;;;;;;;4.13;1.90;;;15.80;65.60;;;;;;5007502;28;20472;-54
2022/09/20 07:52:00;;;;;;;4.60;2.07;;;15.80;65.30;;;;;;5023662;28;20436;-54
2022/09/20 07:54:29;;;;;;;2.80;2.00;;;15.80;65.50;;;;;;5009402;28;20460;-53
2022/09/20 07:56:57;;;;;;;3.37;2.00;;;15.80;65.40;;;;;;4989771;28;20670;-55
2022/09/20 07:59:25;;;;;;;2.73;1.53;;;15.80;65.20;;;;;;5025657;28;20453;-53
2022/09/20 08:01:54;;;;;;;4.30;2.00;;;15.80;65.20;;;;;;5024588;28;20501;-53
2022/09/20 08:04:25;;;;;;;2.80;1.60;;;15.80;65.20;;;;;;5025416;28;20469;-52
2022/09/20 08:06:53;;;;;;;2.63;1.73;;;15.80;65.20;;;;;;5018586;28;20453;-53
2022/09/20 08:09:23;;;;;;;4.43;2.03;;;15.80;65.10;;;;;;5009250;28;20432;-53
2022/09/20 08:11:51;;;;;;;2.70;1.90;;;15.80;65.10;;;;;;5020539;28;20526;-53
2022/09/20 08:14:20;;;;;;;4.10;1.67;;;15.80;65.20;;;;;;5044985;28;20543;-54
2022/09/20 08:16:50;;;;;;;2.07;1.87;;;15.80;65.20;;;;;;5045572;28;20861;-53
2022/09/20 08:19:21;;;;;;;2.50;1.60;;;15.80;65.10;;;;;;5044603;28;20451;-53
2022/09/20 08:21:52;;;;;;;2.60;1.53;;;15.80;65.10;;;;;;5043644;28;20872;-53
2022/09/20 08:24:20;;;;;;;1.83;1.63;;;15.80;65.00;;;;;;5044824;28;20452;-53
2022/09/20 08:26:50;;;;;;;2.23;1.40;;;15.80;65.00;;;;;;5061794;28;20471;-51
2022/09/20 08:29:19;;;;;;;2.10;1.60;;;15.80;64.90;;;;;;5032870;28;20534;-53
2022/09/20 08:31:47;;;;;;;2.67;2.00;;;15.80;64.90;;;;;;5042906;28;20476;-54
2022/09/20 08:34:16;;;;;;;1.93;1.73;;;15.80;64.90;;;;;;5011533;28;20440;-54
2022/09/20 08:36:48;;;;;;;2.20;1.60;;;15.90;65.10;;;;;;5012466;28;20440;-53
2022/09/20 08:39:17;;;;;;;2.20;2.00;;;15.80;65.10;;;;;;5029738;22;20497;-69
2022/09/20 08:42:14;;;;;;;2.10;1.50;;;15.80;65.00;;;;;;4987783;28;20572;-68
2022/09/20 08:44:51;;;;;;;3.77;1.47;;;15.80;64.80;;;;;;5006099;28;20453;-68
2022/09/20 08:47:29;;;;;;;2.77;1.40;;;15.80;64.80;;;;;;4971602;28;20472;-69
2022/09/20 08:50:00;;;;;;;1.90;1.20;;;15.80;64.90;;;;;;4980375;28;20461;-69
2022/09/20 08:52:38;;;;;;;4.07;1.87;;;15.80;64.90;;;;;;4982774;28;20453;-69
2022/09/20 08:55:16;;;;;;;3.97;1.80;;;15.80;64.80;;;;;;5005290;28;20458;-69
2022/09/20 08:57:49;;;;;;;1.77;1.67;;;15.80;64.80;;;;;;4977772;28;20465;-69
2022/09/20 09:00:19;;;;;;;1.97;1.70;;;15.80;64.90;;;;;;4965046;28;20601;-69
2022/09/20 09:02:51;;;;;;;1.60;1.50;;;15.80;64.80;;;;;;4982515;28;20463;-69
2022/09/20 09:05:32;;;;;;;2.47;1.60;;;15.80;64.90;;;;;;4969005;28;20482;-67
2022/09/20 09:08:04;;;;;;;2.10;1.50;;;15.90;64.80;;;;;;4972487;28;20490;-68
2022/09/20 09:10:36;;;;;;;2.10;1.63;;;15.80;64.60;;;;;;4965684;28;20443;-69
2022/09/20 09:13:24;;;;;;;1.70;1.40;;;15.80;64.70;;;;;;4983729;28;20457;-69
2022/09/20 09:15:56;;;;;;;2.33;2.13;;;15.80;64.60;;;;;;4979352;28;20554;-69
2022/09/20 09:18:33;;;;;;;3.50;1.40;;;15.80;64.50;;;;;;4963173;28;20507;-67
2022/09/20 09:21:04;;;;;;;3.10;1.43;;;15.80;64.50;;;;;;4964287;28;20449;-69
2022/09/20 09:23:41;;;;;;;1.93;1.83;;;15.80;64.60;;;;;;4983034;28;20566;-69
2022/09/20 09:26:19;;;;;;;1.40;1.20;;;15.90;64.50;;;;;;4988346;28;20556;-69
2022/09/20 09:29:08;;;;;;;5.03;1.73;;;15.90;64.40;;;;;;4989711;28;21022;-69
2022/09/20 09:31:38;;;;;;;2.77;2.40;;;15.90;64.40;;;;;;4989588;28;20452;-69
2022/09/20 09:34:26;;;;;;;2.67;1.67;;;15.90;64.40;;;;;;4981317;28;20452;-68
2022/09/20 09:36:55;;;;;;;4.47;2.13;;;15.90;64.40;;;;;;4976618;28;21064;-68
2022/09/20 09:39:26;;;;;;;1.97;1.63;;;15.90;64.50;;;;;;4984411;28;20498;-69
2022/09/20 09:41:55;;;;;;;2.60;1.23;;;15.90;64.30;;;;;;4984401;28;20485;-68
2022/09/20 09:44:27;;;;;;;3.03;1.17;;;15.90;64.20;;;;;;4988938;28;20496;-68
2022/09/20 09:46:56;;;;;;;2.30;1.47;;;15.90;64.10;;;;;;4988738;28;20473;-68
2022/09/20 09:49:26;;;;;;;1.83;1.40;;;15.90;64.10;;;;;;4999237;28;20950;-69
2022/09/20 09:52:05;;;;;;;2.33;1.33;;;15.90;63.90;;;;;;4988082;28;20989;-69
2022/09/20 09:54:37;;;;;;;1.50;1.07;;;15.90;63.80;;;;;;4977891;28;20890;-69
2022/09/20 09:57:27;;;;;;;3.33;1.50;;;16.00;63.70;;;;;;4984541;28;20481;-68
2022/09/20 10:00:06;;;;;;;3.40;1.63;;;16.00;63.30;;;;;;4980235;28;20530;-68
2022/09/20 10:03:14;;;;;;;1.30;1.20;;;16.00;63.50;;;;;;4987908;28;20501;-68
2022/09/20 10:05:54;;;;;;;2.57;1.10;;;16.00;63.30;;;;;;4944516;28;20508;-68
2022/09/20 10:08:31;;;;;;;2.60;1.13;;;15.90;63.30;;;;;;4981632;28;20453;-68
2022/09/20 10:11:09;;;;;;;1.70;1.17;;;15.90;63.20;;;;;;4980302;28;20474;-69
2022/09/20 10:13:47;;;;;;;4.03;1.27;;;15.90;63.00;;;;;;4987684;28;20465;-69
2022/09/20 10:16:30;;;;;;;1.67;0.83;;;15.90;63.10;;;;;;4985377;28;20506;-69
2022/09/20 10:19:09;;;;;;;2.67;1.40;;;15.90;63.10;;;;;;4994779;28;20584;-69
2022/09/20 10:21:49;;;;;;;2.63;1.60;;;16.00;63.00;;;;;;4986925;28;20864;-69
2022/09/20 10:24:30;;;;;;;2.20;1.00;;;15.90;62.80;;;;;;4976528;28;20517;-68
2022/09/20 10:27:21;;;;;;;3.30;1.30;;;15.90;63.00;;;;;;4984710;28;20478;-69
2022/09/20 10:30:07;;;;;;;2.97;2.30;;;15.90;62.70;;;;;;4981638;28;20465;-68
2022/09/20 10:33:00;;;;;;;1.53;1.07;;;15.90;62.90;;;;;;4978530;28;20981;-69
2022/09/20 10:35:43;;;;;;;6.07;1.70;;;15.90;62.60;;;;;;4971287;28;20698;-69
2022/09/20 10:38:15;;;;;;;2.03;1.60;;;15.90;62.70;;;;;;4984860;28;20799;-69
2022/09/20 10:43:57;;;;;;;1.67;1.10;;;15.90;62.80;;;;;;4997369;28;20893;-69
2022/09/20 10:46:44;;;;;;;2.40;1.20;;;15.90;62.90;;;;;;4970502;28;20458;-68
2022/09/20 10:49:25;;;;;;;1.60;0.80;;;15.80;62.60;;;;;;4980133;28;20541;-68
2022/09/20 10:52:18;;;;;;;1.53;1.00;;;15.80;62.80;;;;;;5002746;28;21005;-68
2022/09/20 10:55:03;;;;;;;3.57;1.57;;;15.80;62.40;;;;;;4981246;28;20474;-68
2022/09/20 10:58:00;;;;;;;1.90;1.20;;;15.90;62.60;;;;;;4981820;28;20540;-68
2022/09/20 11:00:41;;;;;;;3.50;0.90;;;15.80;62.60;;;;;;4989749;28;20479;-68
2022/09/20 11:03:22;;;;;;;1.80;1.20;;;15.80;62.50;;;;;;4974781;28;20465;-68
2022/09/20 11:06:05;;;;;;;2.00;1.30;;;15.80;62.70;;;;;;4989271;28;20551;-68
2022/09/20 11:08:36;;;;;;;1.03;0.90;;;15.80;62.80;;;;;;4982173;28;20523;-68
2022/09/20 11:11:09;;;;;;;1.20;1.10;;;15.80;62.80;;;;;;4980158;28;21047;-68
2022/09/20 11:13:42;;;;;;;3.47;1.47;;;15.80;62.90;;;;;;4976727;28;20465;-68
2022/09/20 11:16:14;;;;;;;1.13;1.03;;;15.80;62.90;;;;;;4973029;28;20520;-68
2022/09/20 11:18:49;;;;;;;2.40;1.13;;;15.80;62.90;;;;;;4983948;28;20466;-68
2022/09/20 11:21:25;;;;;;;3.37;1.27;;;15.80;62.80;;;;;;4976761;28;20852;-68
2022/09/20 11:23:59;;;;;;;1.40;1.00;;;15.80;62.80;;;;;;4978818;28;20904;-68
2022/09/20 11:26:37;;;;;;;2.03;1.27;;;15.80;62.70;;;;;;4973706;28;20466;-68
2022/09/20 11:29:21;;;;;;;1.40;1.10;;;15.80;62.70;;;;;;4979805;28;20870;-68
2022/09/20 11:31:53;;;;;;;2.10;0.90;;;15.80;62.70;;;;;;4982913;28;20442;-68
2022/09/20 11:34:28;;;;;;;1.73;0.73;;;15.80;62.80;;;;;;4982169;28;20482;-68
2022/09/20 11:37:01;;;;;;;1.27;0.90;;;15.80;62.80;;;;;;4980281;28;20846;-68
2022/09/20 11:39:38;;;;;;;2.70;1.00;;;15.80;62.90;;;;;;4978605;28;20442;-68
2022/09/20 11:42:11;;;;;;;1.97;1.10;;;15.80;62.80;;;;;;4972872;28;20525;-68
2022/09/20 11:44:41;;;;;;;1.80;0.97;;;15.80;62.80;;;;;;4999370;28;21000;-68
2022/09/20 11:47:17;;;;;;;1.90;1.40;;;15.80;62.80;;;;;;4993915;28;20533;-68
2022/09/20 11:50:44;;;;;;;2.00;1.03;;;15.80;62.90;;;;;;4970932;28;20438;-68
2022/09/20 11:53:28;;;;;;;3.07;1.63;;;15.80;62.80;;;;;;4995786;28;20528;-69
2022/09/20 11:56:07;;;;;;;1.87;1.00;;;15.90;62.90;;;;;;4969434;28;21237;-69
2022/09/20 11:58:47;;;;;;;0.90;0.70;;;15.80;62.90;;;;;;4985536;28;20480;-69
2022/09/20 12:01:25;;;;;;;1.23;0.80;;;15.80;62.80;;;;;;4985233;28;20823;-69
2022/09/20 12:03:58;;;;;;;1.07;0.90;;;15.80;62.90;;;;;;4986988;28;20923;-69
2022/09/20 12:06:47;;;;;;;1.23;0.70;;;15.80;63.00;;;;;;4988006;28;20855;-69
2022/09/20 12:09:28;;;;;;;1.13;0.83;;;15.80;63.00;;;;;;4978728;28;20530;-69
2022/09/20 12:11:58;;;;;;;2.53;1.20;;;15.80;63.00;;;;;;4981091;28;20453;-69
2022/09/20 12:14:31;;;;;;;3.47;1.10;;;15.80;63.10;;;;;;4967973;28;20445;-69
2022/09/20 12:16:59;;;;;;;2.63;1.37;;;15.80;63.20;;;;;;4984562;28;20640;-67
2022/09/20 12:19:38;;;;;;;1.07;0.90;;;15.80;63.20;;;;;;4984479;28;21028;-69
2022/09/20 12:22:28;;;;;;;4.40;1.10;;;15.80;63.50;;;;;;4991367;28;20537;-68
2022/09/20 12:25:39;;;;;;;1.20;1.10;;;15.80;63.40;;;;;;4982360;28;20568;-68
2022/09/20 12:28:14;;;;;;;1.93;0.90;;;15.80;63.40;;;;;;4980862;28;20513;-68
2022/09/20 12:30:43;;;;;;;1.50;1.40;;;15.80;63.50;;;;;;5003403;28;20450;-67
2022/09/20 12:33:21;;;;;;;1.53;1.30;;;15.80;63.60;;;;;;4983807;28;20476;-69
2022/09/20 12:35:53;;;;;;;2.33;1.20;;;15.80;63.40;;;;;;4983769;28;20552;-69
2022/09/20 12:38:39;;;;;;;6.07;1.63;;;15.80;64.10;;;;;;4987013;28;20478;-72
2022/09/20 12:41:15;;;;;;;1.00;0.83;;;15.80;63.90;;;;;;4982756;28;20957;-72
2022/09/20 12:43:56;;;;;;;1.50;0.83;;;15.80;63.60;;;;;;5003011;28;20531;-72
2022/09/20 12:46:41;;;;;;;2.80;0.93;;;15.80;63.60;;;;;;4986147;28;20492;-72
2022/09/20 12:52:56;;;;;;;1.90;0.70;;;15.80;63.60;;;;;;4986991;28;20885;-72
2022/09/20 12:55:45;;;;;;;1.57;1.20;;;15.80;63.40;;;;;;4991598;28;20453;-72
2022/09/20 12:58:28;;;;;;;1.37;0.90;;;15.80;63.50;;;;;;5002289;28;20461;-72
2022/09/20 13:01:35;;;;;;;1.30;0.80;;;15.80;63.30;;;;;;4987263;28;20795;-72
2022/09/20 13:04:55;;;;;;;2.00;0.80;;;15.80;63.40;;;;;;4976375;28;20984;-72
2022/09/20 13:07:52;;;;;;;1.00;0.70;;;15.90;63.60;;;;;;4976981;28;20430;-72
2022/09/20 13:10:37;;;;;;;2.97;0.90;;;15.90;63.70;;;;;;5000080;28;20560;-72
2022/09/20 13:13:31;;;;;;;2.47;0.77;;;15.90;63.70;;;;;;5000941;28;20890;-72
2022/09/20 13:16:04;;;;;;;0.90;0.80;;;15.90;63.90;;;;;;4983177;28;20458;-72
2022/09/20 13:18:39;;;;;;;2.07;0.67;;;15.90;63.90;;;;;;4992915;28;20481;-72
2022/09/20 13:21:08;;;;;;;1.73;0.90;;;15.90;63.80;;;;;;4986055;28;21655;-72
2022/09/20 13:23:49;;;;;;;1.03;0.70;;;15.90;64.20;;;;;;4982281;28;20467;-72
2022/09/20 13:26:28;;;;;;;1.30;0.90;;;15.90;63.90;;;;;;4969977;28;20834;-73
2022/09/20 13:28:59;;;;;;;1.10;0.87;;;15.90;63.90;;;;;;4984833;28;20465;-69
2022/09/20 13:31:34;;;;;;;1.93;0.90;;;15.90;63.80;;;;;;4962060;28;20435;-69
2022/09/20 13:34:20;;;;;;;2.00;0.93;;;15.90;63.90;;;;;;4968801;28;20439;-69
2022/09/20 13:36:52;;;;;;;1.37;0.83;;;15.90;63.70;;;;;;4980211;28;20879;-69
2022/09/20 13:39:33;;;;;;;1.40;0.80;;;15.90;63.70;;;;;;4966267;28;20452;-69
2022/09/20 13:42:06;;;;;;;1.83;1.40;;;15.90;63.60;;;;;;4979073;28;20568;-69
2022/09/20 13:44:36;;;;;;;1.33;1.10;;;15.80;63.50;;;;;;4976417;28;20560;-69
2022/09/20 13:47:22;;;;;;;2.00;0.80;;;15.90;63.50;;;;;;4981368;28;20446;-69
2022/09/20 13:49:51;;;;;;;1.83;0.67;;;15.90;63.40;;;;;;4996806;28;20437;-72
2022/09/20 13:52:24;;;;;;;2.60;1.00;;;15.90;63.60;;;;;;4985390;28;20618;-72
2022/09/20 13:54:53;;;;;;;1.33;0.90;;;15.90;63.70;;;;;;4996636;28;20560;-72
2022/09/20 13:57:26;;;;;;;0.97;0.80;;;15.90;63.50;;;;;;5003355;28;20537;-72
2022/09/20 14:00:00;;;;;;;1.33;0.90;;;15.90;63.70;;;;;;4989286;28;20521;-72
2022/09/20 14:02:39;;;;;;;1.43;0.80;;;15.90;63.50;;;;;;4981120;28;20484;-72
2022/09/20 14:05:14;;;;;;;1.70;1.17;;;15.90;63.70;;;;;;4972228;28;20481;-72
2022/09/20 14:07:45;;;;;;;0.70;0.60;;;15.90;63.70;;;;;;4981749;28;20474;-72
2022/09/20 14:10:28;;;;;;;1.90;0.60;;;15.90;64.10;;;;;;4977957;28;20454;-72